< < Back
Terminal Aerodrome Forecast


Current Version              Previous Versions:   1  2  3  4  5  6  7  8  9  

Terminal Aerodrome Forecast

384
FTUS44 KBMX 022320
TAFANB
TAF
KANB 022320Z 0300/0324 30003KT P6SM BKN200=



Latest METAR

803
SAUS70 KWBC 030400 RRL
MTRANB
METAR KANB 030353Z AUTO 00000KT 7SM CLR 24/22 A3003 RMK AO2 SLP157
T02390222


USA.gov is the U.S. government's official web portal to all federal, state and local government web resources and services.